createdAt,value
2023-05-02T00:00:12.191Z,3.20
2023-05-02T00:01:14.413Z,3.35
2023-05-02T00:02:16.311Z,3.17
2023-05-02T00:03:18.457Z,3.53
2023-05-02T00:04:20.892Z,3.47
2023-05-02T00:05:23.586Z,3.70
2023-05-02T00:06:25.834Z,3.65
2023-05-02T00:07:28.327Z,3.22
2023-05-02T00:08:30.129Z,3.60
2023-05-02T00:09:32.058Z,3.47
2023-05-02T00:10:34.319Z,3.45
2023-05-02T00:11:36.166Z,3.45
2023-05-02T00:12:38.052Z,3.47
2023-05-02T00:13:39.896Z,3.63
2023-05-02T00:14:41.698Z,3.92
2023-05-02T00:15:44.066Z,3.78
2023-05-02T00:16:46.100Z,4.57
2023-05-02T00:17:48.327Z,3.55
2023-05-02T00:18:50.280Z,3.60
2023-05-02T00:19:52.147Z,3.53
2023-05-02T00:20:55.421Z,3.50
2023-05-02T00:21:57.204Z,4.00
2023-05-02T00:22:58.990Z,3.50
2023-05-02T00:24:00.741Z,3.53
2023-05-02T00:25:02.678Z,3.35
2023-05-02T00:26:09.439Z,3.65
2023-05-02T00:27:11.432Z,4.10
2023-05-02T00:28:13.301Z,3.58
2023-05-02T00:29:15.098Z,3.50
2023-05-02T00:30:17.710Z,3.90
2023-05-02T00:31:19.644Z,3.50
2023-05-02T00:32:21.487Z,3.72
2023-05-02T00:33:23.237Z,3.60
2023-05-02T00:34:30.034Z,3.50
2023-05-02T00:35:33.858Z,3.45
2023-05-02T00:36:35.647Z,3.08
2023-05-02T00:37:37.401Z,3.40
2023-05-02T00:38:39.218Z,3.83
2023-05-02T00:39:41.035Z,3.80
2023-05-02T00:40:47.443Z,3.50
2023-05-02T00:41:49.298Z,4.05
2023-05-02T00:42:51.225Z,4.13
2023-05-02T00:43:53.236Z,3.95
2023-05-02T00:44:55.080Z,4.30
2023-05-02T00:45:56.864Z,3.65
2023-05-02T00:47:01.137Z,4.43
2023-05-02T00:48:02.984Z,4.05
2023-05-02T00:49:04.926Z,4.28
2023-05-02T00:50:07.338Z,3.80
2023-05-02T00:51:09.275Z,3.85
2023-05-02T00:52:11.161Z,3.40
2023-05-02T00:53:13.059Z,3.90
2023-05-02T00:54:15.585Z,3.88
2023-05-02T00:55:17.566Z,4.03
2023-05-02T00:56:19.332Z,4.03
2023-05-02T00:57:21.087Z,4.32
2023-05-02T00:58:22.895Z,4.10
2023-05-02T00:59:26.096Z,4.43
2023-05-02T01:01:07.633Z,3.78
2023-05-02T01:02:36.894Z,4.13
2023-05-02T01:03:57.404Z,3.83
2023-05-02T01:05:33.222Z,3.63
2023-05-02T01:06:46.717Z,4.00
2023-05-02T01:08:10.539Z,3.80
2023-05-02T01:09:12.388Z,4.03
2023-05-02T01:10:47.864Z,4.45
2023-05-02T01:12:09.377Z,3.80
2023-05-02T01:13:33.710Z,3.67
2023-05-02T01:14:42.532Z,3.95
2023-05-02T01:15:45.760Z,3.72
2023-05-02T01:16:50.323Z,4.55
2023-05-02T01:19:59.632Z,3.47
2023-05-02T01:21:04.875Z,4.40
2023-05-02T01:22:09.903Z,4.30
2023-05-02T01:23:27.543Z,4.40
2023-05-02T01:24:35.446Z,3.75
2023-05-02T01:25:58.959Z,4.82
2023-05-02T01:27:22.973Z,4.45
2023-05-02T01:29:02.221Z,4.38
2023-05-02T01:30:06.492Z,4.38
2023-05-02T01:31:08.405Z,4.00
2023-05-02T01:32:13.612Z,4.35
2023-05-02T01:33:17.334Z,4.17
2023-05-02T01:34:21.874Z,4.32
2023-05-02T01:35:25.864Z,4.70
2023-05-02T01:36:30.662Z,4.20
2023-05-02T01:37:34.088Z,4.43
2023-05-02T01:38:37.638Z,3.70
2023-05-02T01:39:41.117Z,3.90
2023-05-02T01:40:45.752Z,3.88
2023-05-02T01:41:50.786Z,4.60
2023-05-02T01:42:53.951Z,4.47
2023-05-02T01:44:00.529Z,4.17
2023-05-02T01:45:05.026Z,4.88
2023-05-02T01:46:10.596Z,4.30
2023-05-02T01:47:13.633Z,4.70
2023-05-02T01:48:19.351Z,4.30
2023-05-02T01:49:24.414Z,4.07
2023-05-02T01:50:26.587Z,4.35
2023-05-02T01:51:32.659Z,4.35
2023-05-02T01:52:35.041Z,4.55
2023-05-02T01:53:39.035Z,4.55
2023-05-02T01:54:41.454Z,3.87
2023-05-02T01:55:45.891Z,4.40
2023-05-02T01:56:48.245Z,4.50
2023-05-02T01:57:53.310Z,3.95
2023-05-02T01:58:56.525Z,5.03
2023-05-02T01:59:59.836Z,4.35
2023-05-02T02:01:03.089Z,4.10
2023-05-02T02:02:07.892Z,4.10
2023-05-02T02:03:10.527Z,4.28
2023-05-02T02:04:15.164Z,3.83
2023-05-02T02:05:18.876Z,4.37
2023-05-02T02:06:21.869Z,4.22
2023-05-02T02:07:24.024Z,4.35
2023-05-02T02:08:25.946Z,4.10
2023-05-02T02:09:27.730Z,4.13
2023-05-02T02:10:36.277Z,4.18
2023-05-02T02:11:52.583Z,4.35
2023-05-02T02:13:12.830Z,4.95
2023-05-02T02:14:20.119Z,4.60
2023-05-02T02:15:28.309Z,3.80
2023-05-02T02:16:32.922Z,4.17
2023-05-02T02:17:42.998Z,3.78
2023-05-02T02:18:45.214Z,4.22
2023-05-02T02:19:47.004Z,4.85
2023-05-02T02:20:51.030Z,4.28
2023-05-02T02:21:56.448Z,4.00
2023-05-02T02:23:00.629Z,4.50
2023-05-02T02:24:05.395Z,5.30
2023-05-02T02:25:10.989Z,4.22
2023-05-02T02:26:13.848Z,4.38
2023-05-02T02:27:15.867Z,4.40
2023-05-02T02:28:17.689Z,4.53
2023-05-02T02:29:19.411Z,4.10
2023-05-02T02:30:21.140Z,4.93
2023-05-02T02:31:22.899Z,4.35
2023-05-02T02:32:24.758Z,4.22
2023-05-02T02:33:30.769Z,4.45
2023-05-02T02:34:32.627Z,4.63
2023-05-02T02:35:40.485Z,4.60
2023-05-02T02:36:47.934Z,4.30
2023-05-02T02:38:23.501Z,4.90
2023-05-02T02:40:03.547Z,4.18
2023-05-02T02:41:16.699Z,4.28
2023-05-02T02:42:40.112Z,4.25
2023-05-02T02:44:12.200Z,4.30
2023-05-02T02:45:33.492Z,4.07
2023-05-02T02:47:09.740Z,4.68
2023-05-02T02:48:34.580Z,4.63
2023-05-02T02:49:58.039Z,4.03
2023-05-02T02:51:07.481Z,4.28
2023-05-02T02:52:30.649Z,4.77
2023-05-02T02:54:00.410Z,4.70
2023-05-02T02:55:17.078Z,5.10
2023-05-02T02:56:29.039Z,4.97
2023-05-02T02:57:41.217Z,4.97
2023-05-02T02:58:57.844Z,4.20
2023-05-02T02:59:59.724Z,4.50
2023-05-02T03:01:06.615Z,5.15
2023-05-02T03:02:12.544Z,5.30
2023-05-02T03:03:15.905Z,4.35
2023-05-02T03:04:21.998Z,4.50
2023-05-02T03:05:24.243Z,5.00
2023-05-02T03:06:26.579Z,5.03
2023-05-02T03:07:29.076Z,4.88
2023-05-02T03:08:42.707Z,5.03
2023-05-02T03:09:45.854Z,4.50
2023-05-02T03:10:47.544Z,4.68
2023-05-02T03:11:49.311Z,4.68
2023-05-02T03:12:51.164Z,4.70
2023-05-02T03:13:53.043Z,4.60
2023-05-02T03:15:03.690Z,4.80
2023-05-02T03:16:29.777Z,4.45
2023-05-02T03:17:31.556Z,4.55
2023-05-02T03:18:33.352Z,4.30
2023-05-02T03:19:35.132Z,4.85
2023-05-02T03:20:36.931Z,4.68
2023-05-02T03:21:38.951Z,4.57
2023-05-02T03:22:40.637Z,4.53
2023-05-02T03:23:42.318Z,4.60
2023-05-02T03:24:44.005Z,4.70
2023-05-02T03:25:45.688Z,4.70
2023-05-02T03:26:47.421Z,4.85
2023-05-02T03:27:49.069Z,4.57
2023-05-02T03:28:50.807Z,5.00
2023-05-02T03:29:52.507Z,4.55
2023-05-02T03:30:54.393Z,4.85
2023-05-02T03:31:56.107Z,4.65
2023-05-02T03:32:57.842Z,4.63
2023-05-02T03:33:59.701Z,5.28
2023-05-02T03:35:01.400Z,4.47
2023-05-02T03:36:03.351Z,4.90
2023-05-02T03:37:05.124Z,5.47
2023-05-02T03:38:07.045Z,5.28
2023-05-02T03:39:08.865Z,5.40
2023-05-02T03:40:11.154Z,5.00
2023-05-02T03:41:12.857Z,5.20
2023-05-02T03:42:14.506Z,6.07
2023-05-02T03:43:16.225Z,4.93
2023-05-02T03:44:17.876Z,5.18
2023-05-02T03:45:19.575Z,4.93
2023-05-02T03:46:21.476Z,5.80
2023-05-02T03:47:23.278Z,5.05
2023-05-02T03:48:25.143Z,5.53
2023-05-02T03:49:26.945Z,5.47
2023-05-02T03:50:28.872Z,5.32
2023-05-02T03:51:30.583Z,5.72
2023-05-02T03:52:33.973Z,5.15
2023-05-02T03:53:36.424Z,5.45
2023-05-02T03:54:38.133Z,5.30
2023-05-02T03:55:40.737Z,5.72
2023-05-02T03:56:42.952Z,5.07
2023-05-02T03:57:44.734Z,5.30
2023-05-02T03:58:46.744Z,5.18
2023-05-02T03:59:48.563Z,5.13
2023-05-02T04:00:50.297Z,5.72
2023-05-02T04:01:52.112Z,5.47
2023-05-02T04:02:53.912Z,5.25
2023-05-02T04:03:55.758Z,5.28
2023-05-02T04:04:57.495Z,5.35
2023-05-02T04:05:59.222Z,5.50
2023-05-02T04:07:01.120Z,5.07
2023-05-02T04:08:02.810Z,5.25
2023-05-02T04:09:04.604Z,5.20
2023-05-02T04:10:06.645Z,5.93
2023-05-02T04:11:08.467Z,4.85
2023-05-02T04:12:10.263Z,5.03
2023-05-02T04:13:11.989Z,5.60
2023-05-02T04:14:13.624Z,5.88
2023-05-02T04:15:15.708Z,5.18
2023-05-02T04:16:17.430Z,5.68
2023-05-02T04:17:19.198Z,5.63
2023-05-02T04:18:21.014Z,5.40
2023-05-02T04:19:22.864Z,5.20
2023-05-02T04:20:24.946Z,5.57
2023-05-02T04:21:26.707Z,5.35
2023-05-02T04:22:28.771Z,6.93
2023-05-02T04:23:30.623Z,8.48
2023-05-02T04:24:32.292Z,8.13
2023-05-02T04:25:33.911Z,7.82
2023-05-02T04:26:35.568Z,5.97
2023-05-02T04:27:37.204Z,6.00
2023-05-02T04:28:38.861Z,4.80
2023-05-02T04:29:40.549Z,4.93
2023-05-02T04:30:42.242Z,5.68
2023-05-02T04:31:44.524Z,5.80
2023-05-02T04:32:47.229Z,5.30
2023-05-02T04:33:49.107Z,4.90
2023-05-02T04:34:51.008Z,4.93
2023-05-02T04:35:52.673Z,5.20
2023-05-02T04:36:54.387Z,5.38
2023-05-02T04:37:56.041Z,4.93
2023-05-02T04:38:57.759Z,4.95
2023-05-02T04:39:59.670Z,5.50
2023-05-02T04:41:09.281Z,6.35
2023-05-02T04:42:11.647Z,6.65
2023-05-02T04:43:13.369Z,7.22
2023-05-02T04:44:15.210Z,7.75
2023-05-02T04:45:16.996Z,6.07
2023-05-02T04:46:18.858Z,5.00
2023-05-02T04:47:20.649Z,4.90
2023-05-02T04:48:22.386Z,5.57
2023-05-02T04:49:24.218Z,5.50
2023-05-02T04:50:26.073Z,5.57
2023-05-02T04:51:27.850Z,5.25
2023-05-02T04:52:30.605Z,5.75
2023-05-02T04:53:32.281Z,4.50
2023-05-02T04:54:34.850Z,5.15
2023-05-02T04:55:36.585Z,4.97
2023-05-02T04:56:38.245Z,5.93
2023-05-02T04:57:39.937Z,5.55
2023-05-02T04:58:41.655Z,5.37
2023-05-02T04:59:43.426Z,5.35
2023-05-02T05:00:45.190Z,5.55
2023-05-02T05:01:46.954Z,5.20
2023-05-02T05:02:48.902Z,5.90
2023-05-02T05:03:50.870Z,8.45
2023-05-02T05:04:52.840Z,7.07
2023-05-02T05:05:54.576Z,7.07
2023-05-02T05:06:56.398Z,5.65
2023-05-02T05:07:58.222Z,5.05
2023-05-02T05:08:59.922Z,6.30
2023-05-02T05:10:01.977Z,4.90
2023-05-02T05:11:04.241Z,5.43
2023-05-02T05:12:06.025Z,4.80
2023-05-02T05:13:07.835Z,5.22
2023-05-02T05:14:09.835Z,4.75
2023-05-02T05:15:11.996Z,5.45
2023-05-02T05:16:13.866Z,5.10
2023-05-02T05:17:15.651Z,5.05
2023-05-02T05:18:17.332Z,5.28
2023-05-02T05:19:18.992Z,4.90
2023-05-02T05:20:20.692Z,5.03
2023-05-02T05:21:22.546Z,4.25
2023-05-02T05:22:24.351Z,4.60
2023-05-02T05:23:26.106Z,5.35
2023-05-02T05:24:27.865Z,4.68
2023-05-02T05:25:29.904Z,4.40
2023-05-02T05:26:31.648Z,4.07
2023-05-02T05:27:34.777Z,4.20
2023-05-02T05:28:36.638Z,4.88
2023-05-02T05:29:38.325Z,4.30
2023-05-02T05:30:40.011Z,4.25
2023-05-02T05:31:41.719Z,4.38
2023-05-02T05:32:43.510Z,4.13
2023-05-02T05:33:45.286Z,4.40
2023-05-02T05:34:46.994Z,4.57
2023-05-02T05:35:48.860Z,4.78
2023-05-02T05:36:50.877Z,3.80
2023-05-02T05:37:52.766Z,4.32
2023-05-02T05:38:54.492Z,3.95
2023-05-02T05:39:56.251Z,4.40
2023-05-02T05:40:58.002Z,3.58
2023-05-02T05:41:59.697Z,4.03
2023-05-02T05:43:01.420Z,4.25
2023-05-02T05:44:03.148Z,4.03
2023-05-02T05:45:05.159Z,3.78
2023-05-02T05:46:07.140Z,4.35
2023-05-02T05:47:08.928Z,4.03
2023-05-02T05:48:10.799Z,4.60
2023-05-02T05:49:12.566Z,3.75
2023-05-02T05:50:14.348Z,4.00
2023-05-02T05:51:16.132Z,4.00
2023-05-02T05:52:17.808Z,3.63
2023-05-02T05:53:19.818Z,4.05
2023-05-02T05:54:21.480Z,3.60
2023-05-02T05:55:23.376Z,4.30
2023-05-02T05:56:25.140Z,3.58
2023-05-02T05:57:26.835Z,4.10
2023-05-02T05:58:28.649Z,3.90
2023-05-02T05:59:30.409Z,3.83
2023-05-02T06:00:35.486Z,3.90
2023-05-02T06:01:37.181Z,3.33
2023-05-02T06:02:38.882Z,4.03
2023-05-02T06:03:40.977Z,3.90
2023-05-02T06:04:42.869Z,3.92
2023-05-02T06:05:44.550Z,3.47
2023-05-02T06:06:46.399Z,3.40
2023-05-02T06:07:48.352Z,4.28
2023-05-02T06:08:50.128Z,3.92
2023-05-02T06:09:51.898Z,3.05
2023-05-02T06:10:53.814Z,3.43
2023-05-02T06:11:55.655Z,3.55
2023-05-02T06:12:57.317Z,3.47
2023-05-02T06:13:59.323Z,3.33
2023-05-02T06:15:01.208Z,3.72
2023-05-02T06:16:03.050Z,2.90
2023-05-02T06:17:04.788Z,2.80
2023-05-02T06:18:06.512Z,2.47
2023-05-02T06:19:09.496Z,2.83
2023-05-02T06:20:11.571Z,2.17
2023-05-02T06:21:13.472Z,3.53
2023-05-02T06:22:15.320Z,3.03
2023-05-02T06:23:16.972Z,3.00
2023-05-02T06:24:18.876Z,2.50
2023-05-02T06:25:20.594Z,3.05
2023-05-02T06:26:22.338Z,2.92
2023-05-02T06:27:23.967Z,3.40
2023-05-02T06:28:25.704Z,3.08
2023-05-02T06:29:27.517Z,2.95
2023-05-02T06:30:29.274Z,3.08
2023-05-02T06:31:30.979Z,2.70
2023-05-02T06:32:32.718Z,3.25
2023-05-02T06:33:34.641Z,3.17
2023-05-02T06:34:36.356Z,2.72
2023-05-02T06:35:38.128Z,2.80
2023-05-02T06:36:39.816Z,2.30
2023-05-02T06:37:41.496Z,3.08
2023-05-02T06:38:43.183Z,2.88
2023-05-02T06:39:44.814Z,3.00
2023-05-02T06:40:46.807Z,2.25
2023-05-02T06:41:48.779Z,3.13
2023-05-02T06:42:50.534Z,2.80
2023-05-02T06:43:52.346Z,2.35
2023-05-02T06:44:54.137Z,2.40
2023-05-02T06:45:56.060Z,2.22
2023-05-02T06:46:57.857Z,2.75
2023-05-02T06:47:59.679Z,2.25
2023-05-02T06:49:01.526Z,3.00
2023-05-02T06:50:03.631Z,2.28
2023-05-02T06:51:05.481Z,2.72
2023-05-02T06:52:07.399Z,2.90
2023-05-02T06:53:09.226Z,2.67
2023-05-02T06:54:11.359Z,2.70
2023-05-02T06:55:13.171Z,2.85
2023-05-02T06:56:15.043Z,2.72
2023-05-02T06:57:16.828Z,2.58
2023-05-02T06:58:18.481Z,2.40
2023-05-02T06:59:20.177Z,2.15
2023-05-02T07:00:22.013Z,2.35
2023-05-02T07:01:23.814Z,2.42
2023-05-02T07:02:25.660Z,2.80
2023-05-02T07:03:27.468Z,2.10
2023-05-02T07:04:29.328Z,2.60
2023-05-02T07:05:31.222Z,2.50
2023-05-02T07:06:33.102Z,2.35
2023-05-02T07:07:34.990Z,2.65
2023-05-02T07:08:36.848Z,2.60
2023-05-02T07:09:38.573Z,2.60
2023-05-02T07:10:40.327Z,2.88
2023-05-02T07:11:41.990Z,2.45
2023-05-02T07:12:43.679Z,2.53
2023-05-02T07:13:45.370Z,2.47
2023-05-02T07:14:47.182Z,2.67
2023-05-02T07:15:48.994Z,2.50
2023-05-02T07:16:50.809Z,2.40
2023-05-02T07:17:52.794Z,2.53
2023-05-02T07:18:54.683Z,3.25
2023-05-02T07:19:56.478Z,3.08
2023-05-02T07:20:58.185Z,2.60
2023-05-02T07:21:59.890Z,2.72
2023-05-02T07:23:01.592Z,2.43
2023-05-02T07:24:03.598Z,2.83
2023-05-02T07:25:05.713Z,2.47
2023-05-02T07:26:07.558Z,2.53
2023-05-02T07:27:13.262Z,2.60
2023-05-02T07:28:15.099Z,2.40
2023-05-02T07:29:16.783Z,2.47
2023-05-02T07:30:18.486Z,2.50
2023-05-02T07:31:20.208Z,2.50
2023-05-02T07:32:22.383Z,2.67
2023-05-02T07:33:24.213Z,2.90
2023-05-02T07:34:26.008Z,2.35
2023-05-02T07:35:27.756Z,2.30
2023-05-02T07:36:29.614Z,3.40
2023-05-02T07:37:34.950Z,2.40
2023-05-02T07:38:36.881Z,2.10
2023-05-02T07:39:38.641Z,2.17
2023-05-02T07:40:40.392Z,2.45
2023-05-02T07:41:42.074Z,2.90
2023-05-02T07:42:43.744Z,2.35
2023-05-02T07:43:45.520Z,2.50
2023-05-02T07:44:47.226Z,2.47
2023-05-02T07:45:48.942Z,2.67
2023-05-02T07:46:50.705Z,2.50
2023-05-02T07:47:52.602Z,2.53
2023-05-02T07:48:54.443Z,2.95
2023-05-02T07:49:56.700Z,2.00
2023-05-02T07:51:06.628Z,1.98
2023-05-02T07:52:08.386Z,2.30
2023-05-02T07:53:10.250Z,2.50
2023-05-02T07:54:19.368Z,1.97
2023-05-02T07:55:21.171Z,2.20
2023-05-02T07:56:22.875Z,2.42
2023-05-02T07:57:24.615Z,2.47
2023-05-02T07:58:26.547Z,2.70
2023-05-02T07:59:28.301Z,1.95
2023-05-02T08:00:30.408Z,2.20
2023-05-02T08:01:32.189Z,2.03
2023-05-02T08:02:34.151Z,2.13
2023-05-02T08:03:36.201Z,2.17
2023-05-02T08:04:38.326Z,2.37
2023-05-02T08:05:40.047Z,1.98
2023-05-02T08:06:41.712Z,2.17
2023-05-02T08:07:43.494Z,1.90
2023-05-02T08:08:45.216Z,2.30
2023-05-02T08:09:46.903Z,2.00
2023-05-02T08:10:48.630Z,1.90
2023-05-02T08:11:50.344Z,2.00
2023-05-02T08:12:52.188Z,2.08
2023-05-02T08:13:54.807Z,2.25
2023-05-02T08:14:56.633Z,1.83
2023-05-02T08:15:58.685Z,2.10
2023-05-02T08:17:00.738Z,1.90
2023-05-02T08:18:02.602Z,2.08
2023-05-02T08:19:04.392Z,1.58
2023-05-02T08:20:06.701Z,2.40
2023-05-02T08:21:08.464Z,1.80
2023-05-02T08:22:10.428Z,2.22
2023-05-02T08:23:12.222Z,2.10
2023-05-02T08:24:14.029Z,1.90
2023-05-02T08:25:15.805Z,1.90
2023-05-02T08:26:17.612Z,2.40
2023-05-02T08:27:19.421Z,2.22
2023-05-02T08:28:21.121Z,2.17
2023-05-02T08:29:23.948Z,1.83
2023-05-02T08:30:25.660Z,1.90
2023-05-02T08:31:27.408Z,2.20
2023-05-02T08:32:29.088Z,2.10
2023-05-02T08:33:30.867Z,1.73
2023-05-02T08:34:32.602Z,2.28
2023-05-02T08:35:34.472Z,2.23
2023-05-02T08:36:36.244Z,1.90
2023-05-02T08:37:39.413Z,2.22
2023-05-02T08:38:42.268Z,2.17
2023-05-02T08:39:43.965Z,2.13
2023-05-02T08:40:46.012Z,2.03
2023-05-02T08:41:47.880Z,2.10
2023-05-02T08:42:50.858Z,2.40
2023-05-02T08:43:53.653Z,2.65
2023-05-02T08:44:55.478Z,1.80
2023-05-02T08:46:01.247Z,2.10
2023-05-02T08:47:03.695Z,1.98
2023-05-02T08:48:07.758Z,1.98
2023-05-02T08:49:15.778Z,2.35
2023-05-02T08:50:18.036Z,2.10
2023-05-02T08:52:27.520Z,2.25
2023-05-02T08:53:32.443Z,1.90
2023-05-02T08:54:34.384Z,2.00
2023-05-02T08:55:38.387Z,2.10
2023-05-02T08:56:40.293Z,1.90
2023-05-02T08:57:43.849Z,2.13
2023-05-02T08:58:45.545Z,1.95
2023-05-02T08:59:47.202Z,2.17
2023-05-02T09:00:49.352Z,2.05
2023-05-02T09:01:58.964Z,1.90
2023-05-02T09:03:23.980Z,2.15
2023-05-02T09:04:31.847Z,1.88
2023-05-02T09:05:41.083Z,1.85
2023-05-02T09:06:42.870Z,2.20
2023-05-02T09:07:48.968Z,2.10
2023-05-02T09:08:51.780Z,1.75
2023-05-02T09:09:53.909Z,2.08
2023-05-02T09:10:55.627Z,1.80
2023-05-02T09:11:57.430Z,1.83
2023-05-02T09:13:47.906Z,1.67
2023-05-02T09:15:09.648Z,2.10
2023-05-02T09:16:16.044Z,1.85
2023-05-02T09:17:17.849Z,1.83
2023-05-02T09:18:22.397Z,1.60
2023-05-02T09:19:25.370Z,1.80
2023-05-02T09:20:27.356Z,1.95
2023-05-02T09:21:39.793Z,2.15
2023-05-02T09:22:52.414Z,1.80
2023-05-02T09:23:58.236Z,1.88
2023-05-02T09:25:01.234Z,2.33
2023-05-02T09:26:14.904Z,2.00
2023-05-02T09:27:16.936Z,1.73
2023-05-02T09:28:18.728Z,1.85
2023-05-02T09:29:20.806Z,1.90
2023-05-02T09:30:24.932Z,2.00
2023-05-02T09:31:49.809Z,2.20
2023-05-02T09:32:52.663Z,2.35
2023-05-02T09:33:54.893Z,2.00
2023-05-02T09:35:06.709Z,1.77
2023-05-02T09:36:11.112Z,1.63
2023-05-02T09:37:35.658Z,1.70
2023-05-02T09:38:38.707Z,2.38
2023-05-02T09:39:40.547Z,2.20
2023-05-02T09:40:54.179Z,1.90
2023-05-02T09:41:56.802Z,2.30
2023-05-02T09:42:58.805Z,1.85
2023-05-02T09:44:00.619Z,1.80
2023-05-02T09:45:02.489Z,1.73
2023-05-02T09:46:06.583Z,1.85
2023-05-02T09:47:08.464Z,1.75
2023-05-02T09:48:10.219Z,2.05
2023-05-02T09:49:12.031Z,1.88
2023-05-02T09:50:34.298Z,1.80
2023-05-02T09:51:36.935Z,1.67
2023-05-02T09:52:38.642Z,2.33
2023-05-02T09:53:44.152Z,1.80
2023-05-02T09:54:46.016Z,1.80
2023-05-02T09:55:47.865Z,1.77
2023-05-02T09:56:56.806Z,1.83
2023-05-02T09:57:59.689Z,1.70
2023-05-02T09:59:15.327Z,1.95
2023-05-02T10:00:17.474Z,1.60
2023-05-02T10:01:20.339Z,2.05
2023-05-02T10:02:24.347Z,1.92
2023-05-02T10:03:28.224Z,1.77
2023-05-02T10:04:32.195Z,2.05
2023-05-02T10:05:37.345Z,1.98
2023-05-02T10:06:39.381Z,1.73
2023-05-02T10:07:41.357Z,2.22
2023-05-02T10:08:43.050Z,1.67
2023-05-02T10:09:45.496Z,1.90
2023-05-02T10:10:55.348Z,1.75
2023-05-02T10:11:57.287Z,1.52
2023-05-02T10:12:59.811Z,1.65
2023-05-02T10:14:01.697Z,1.80
2023-05-02T10:15:04.524Z,2.08
2023-05-02T10:16:07.485Z,2.10
2023-05-02T10:17:22.659Z,1.80
2023-05-02T10:18:28.300Z,1.60
2023-05-02T10:19:39.136Z,1.70
2023-05-02T10:20:48.474Z,1.73
2023-05-02T10:21:51.367Z,1.90
2023-05-02T10:22:53.915Z,1.95
2023-05-02T10:23:56.409Z,1.98
2023-05-02T10:24:59.925Z,2.10
2023-05-02T10:26:02.026Z,1.70
2023-05-02T10:27:04.511Z,2.10
2023-05-02T10:28:06.410Z,2.50
2023-05-02T10:29:08.445Z,1.75
2023-05-02T10:30:13.000Z,1.75
2023-05-02T10:31:15.594Z,1.80
2023-05-02T10:32:18.740Z,3.05
2023-05-02T10:33:24.082Z,2.20
2023-05-02T10:34:27.515Z,1.92
2023-05-02T10:35:30.776Z,1.73
2023-05-02T10:36:33.223Z,1.77
2023-05-02T10:37:38.641Z,1.80
2023-05-02T10:38:41.373Z,1.60
2023-05-02T10:39:43.220Z,1.90
2023-05-02T10:41:09.882Z,1.85
2023-05-02T10:42:11.979Z,1.90
2023-05-02T10:43:16.603Z,2.00
2023-05-02T10:44:18.692Z,1.90
2023-05-02T10:45:36.995Z,1.90
2023-05-02T10:46:40.708Z,1.73
2023-05-02T10:47:43.889Z,2.10
2023-05-02T10:49:10.403Z,2.00
2023-05-02T10:50:12.127Z,2.05
2023-05-02T10:51:28.553Z,1.67
2023-05-02T10:52:35.078Z,2.75
2023-05-02T10:53:38.468Z,1.88
2023-05-02T10:54:40.278Z,1.90
2023-05-02T10:55:42.192Z,2.05
2023-05-02T10:57:04.357Z,2.03
2023-05-02T10:58:06.045Z,1.80
2023-05-02T10:59:27.457Z,1.95
2023-05-02T11:00:34.109Z,2.20
2023-05-02T11:01:36.968Z,2.20
2023-05-02T11:02:38.872Z,2.00
2023-05-02T11:04:00.486Z,1.60
2023-05-02T11:05:04.786Z,1.98
2023-05-02T11:06:07.474Z,2.25
2023-05-02T11:07:19.004Z,1.83
2023-05-02T11:08:23.015Z,1.90
2023-05-02T11:09:25.079Z,2.20
2023-05-02T11:10:27.539Z,1.85
2023-05-02T11:11:43.648Z,1.98
2023-05-02T11:12:54.268Z,1.77
2023-05-02T11:13:56.153Z,1.63
2023-05-02T11:14:58.041Z,2.00
2023-05-02T11:16:00.099Z,1.70
2023-05-02T11:17:01.849Z,2.00
2023-05-02T11:18:03.800Z,1.90
2023-05-02T11:19:05.518Z,1.80
2023-05-02T11:20:19.742Z,1.80
2023-05-02T11:21:29.190Z,2.42
2023-05-02T11:22:31.506Z,2.20
2023-05-02T11:23:33.254Z,1.92
2023-05-02T11:24:42.633Z,1.67
2023-05-02T11:25:49.186Z,2.30
2023-05-02T11:26:50.937Z,1.83
2023-05-02T11:27:52.644Z,2.33
2023-05-02T11:28:54.374Z,1.83
2023-05-02T11:29:57.378Z,1.80
2023-05-02T11:30:59.167Z,2.00
2023-05-02T11:32:00.970Z,1.73
2023-05-02T11:33:05.754Z,2.00
2023-05-02T11:34:07.558Z,2.55
2023-05-02T11:35:21.446Z,2.30
2023-05-02T11:36:33.992Z,1.70
2023-05-02T11:37:35.745Z,1.70
2023-05-02T11:38:38.921Z,1.65
2023-05-02T11:39:40.814Z,1.98
2023-05-02T11:40:51.401Z,1.50
2023-05-02T11:41:53.123Z,2.10
2023-05-02T11:42:55.737Z,2.22
2023-05-02T11:44:03.908Z,1.98
2023-05-02T11:45:06.157Z,1.70
2023-05-02T11:46:08.052Z,2.15
2023-05-02T11:47:09.799Z,1.90
2023-05-02T11:48:17.365Z,1.83
2023-05-02T11:49:19.362Z,2.10
2023-05-02T11:50:21.313Z,2.03
2023-05-02T11:51:23.619Z,1.88
2023-05-02T11:52:25.419Z,1.87
2023-05-02T11:53:28.701Z,1.80
2023-05-02T11:54:30.852Z,2.10
2023-05-02T11:55:32.642Z,1.98
2023-05-02T11:56:34.498Z,1.60
2023-05-02T11:57:37.180Z,2.00
2023-05-02T11:58:39.347Z,1.60
2023-05-02T11:59:51.610Z,2.08
2023-05-02T12:00:53.842Z,1.80
2023-05-02T12:01:55.560Z,1.80
2023-05-02T12:02:57.461Z,2.23
2023-05-02T12:04:06.677Z,1.90
2023-05-02T12:05:10.069Z,2.00
2023-05-02T12:06:15.143Z,1.80
2023-05-02T12:07:17.168Z,1.92
2023-05-02T12:08:28.798Z,1.75
2023-05-02T12:09:30.498Z,1.85
2023-05-02T12:10:38.724Z,1.50
2023-05-02T12:11:41.400Z,2.10
2023-05-02T12:12:44.626Z,2.05
2023-05-02T12:13:49.976Z,2.10
2023-05-02T12:14:52.131Z,1.73
2023-05-02T12:15:55.146Z,1.77
2023-05-02T12:16:58.801Z,1.80
2023-05-02T12:18:01.786Z,1.48
2023-05-02T12:19:04.005Z,1.90
2023-05-02T12:20:08.492Z,1.75
2023-05-02T12:21:10.631Z,1.88
2023-05-02T12:22:12.816Z,1.92
2023-05-02T12:23:14.725Z,1.55
2023-05-02T12:24:17.005Z,2.00
2023-05-02T12:25:18.964Z,1.48
2023-05-02T12:26:25.460Z,1.67
2023-05-02T12:27:27.463Z,1.80
2023-05-02T12:28:29.111Z,2.10
2023-05-02T12:29:41.959Z,1.58
2023-05-02T12:30:47.260Z,1.70
2023-05-02T12:31:51.892Z,1.73
2023-05-02T12:32:57.130Z,1.65
2023-05-02T12:33:59.467Z,2.30
2023-05-02T12:35:03.188Z,1.70
2023-05-02T12:36:08.412Z,1.63
2023-05-02T12:37:10.360Z,1.42
2023-05-02T12:38:18.710Z,1.67
2023-05-02T12:39:43.795Z,1.63
2023-05-02T12:40:53.340Z,1.80
2023-05-02T12:41:55.048Z,1.65
2023-05-02T12:43:01.349Z,1.42
2023-05-02T12:44:03.348Z,2.03
2023-05-02T12:45:05.664Z,1.70
2023-05-02T12:46:10.892Z,1.63
2023-05-02T12:47:14.601Z,1.60
2023-05-02T12:48:26.790Z,1.55
2023-05-02T12:49:28.604Z,1.70
2023-05-02T12:50:40.275Z,1.80
2023-05-02T12:51:42.160Z,1.88
2023-05-02T12:52:49.853Z,1.60
2023-05-02T12:53:51.520Z,1.60
2023-05-02T12:54:53.396Z,1.63
2023-05-02T12:56:04.661Z,1.70
2023-05-02T12:57:06.756Z,1.83
2023-05-02T12:58:10.230Z,1.70
2023-05-02T12:59:27.822Z,1.90
2023-05-02T13:00:31.617Z,1.73
2023-05-02T13:01:34.038Z,1.50
2023-05-02T13:02:35.827Z,1.60
2023-05-02T13:03:37.955Z,1.70
2023-05-02T13:04:41.505Z,1.55
2023-05-02T13:05:43.472Z,1.60
2023-05-02T13:06:46.998Z,1.67
2023-05-02T13:07:49.120Z,1.60
2023-05-02T13:08:50.806Z,1.90
2023-05-02T13:09:52.660Z,2.22
2023-05-02T13:10:54.352Z,1.63
2023-05-02T13:11:56.056Z,1.35
2023-05-02T13:12:57.783Z,1.48
2023-05-02T13:13:59.606Z,1.25
2023-05-02T13:15:01.336Z,1.67
2023-05-02T13:16:03.219Z,1.70
2023-05-02T13:17:05.243Z,1.35
2023-05-02T13:18:07.132Z,1.73
2023-05-02T13:19:08.881Z,1.55
2023-05-02T13:20:11.297Z,1.60
2023-05-02T13:21:13.044Z,1.90
2023-05-02T13:22:14.684Z,1.40
2023-05-02T13:23:16.406Z,1.40
2023-05-02T13:24:18.165Z,1.50
2023-05-02T13:25:20.030Z,1.35
2023-05-02T13:26:21.804Z,1.50
2023-05-02T13:27:24.197Z,1.60
2023-05-02T13:28:26.025Z,1.50
2023-05-02T13:29:27.826Z,1.63
2023-05-02T13:30:29.577Z,1.48
2023-05-02T13:31:31.337Z,1.48
2023-05-02T13:32:33.081Z,1.50
2023-05-02T13:33:34.746Z,1.30
2023-05-02T13:34:36.529Z,1.90
2023-05-02T13:35:38.196Z,1.60
2023-05-02T13:36:40.065Z,3.55
2023-05-02T13:37:42.135Z,1.27
2023-05-02T13:38:43.968Z,1.83
2023-05-02T13:39:45.767Z,1.40
2023-05-02T13:40:47.537Z,1.60
2023-05-02T13:41:49.319Z,1.73
2023-05-02T13:42:50.962Z,1.70
2023-05-02T13:43:52.754Z,1.50
2023-05-02T13:44:54.448Z,1.60
2023-05-02T13:45:56.338Z,1.38
2023-05-02T13:46:58.413Z,1.40
2023-05-02T13:48:00.289Z,1.55
2023-05-02T13:49:03.496Z,1.47
2023-05-02T13:50:05.717Z,1.70
2023-05-02T13:51:07.593Z,1.90
2023-05-02T13:52:09.368Z,1.65
2023-05-02T13:53:11.058Z,1.30
2023-05-02T13:54:12.819Z,1.55
2023-05-02T13:55:14.486Z,1.42
2023-05-02T13:56:16.214Z,1.75
2023-05-02T13:57:17.977Z,1.50
2023-05-02T13:58:19.686Z,1.48
2023-05-02T13:59:21.548Z,1.30
2023-05-02T14:00:23.347Z,1.50
2023-05-02T14:01:25.274Z,1.58
2023-05-02T14:02:27.301Z,1.92
2023-05-02T14:03:29.360Z,1.83
2023-05-02T14:04:31.086Z,1.60
2023-05-02T14:05:32.775Z,1.80
2023-05-02T14:06:37.591Z,1.20
2023-05-02T14:07:39.259Z,1.60
2023-05-02T14:08:41.113Z,1.90
2023-05-02T14:09:43.026Z,1.40
2023-05-02T14:10:45.055Z,1.40
2023-05-02T14:11:46.817Z,1.45
2023-05-02T14:12:48.674Z,1.73
2023-05-02T14:13:50.399Z,1.52
2023-05-02T14:14:52.079Z,1.10
2023-05-02T14:15:54.522Z,1.75
2023-05-02T14:16:56.268Z,1.50